createdAt,value
2022-09-16T00:01:00.296Z,15.19
2022-09-16T00:03:27.857Z,15.19
2022-09-16T00:05:55.158Z,15.31
2022-09-16T00:08:23.150Z,15.38
2022-09-16T00:10:51.091Z,15.56
2022-09-16T00:13:19.205Z,15.50
2022-09-16T00:15:49.271Z,15.50
2022-09-16T00:18:16.832Z,15.50
2022-09-16T00:20:50.379Z,15.44
2022-09-16T00:23:19.271Z,15.44
2022-09-16T00:25:59.520Z,15.31
2022-09-16T00:28:26.806Z,15.38
2022-09-16T00:30:54.244Z,15.44
2022-09-16T00:33:21.682Z,15.25
2022-09-16T00:35:48.900Z,15.13
2022-09-16T00:38:16.210Z,15.06
2022-09-16T00:40:50.764Z,14.75
2022-09-16T00:43:20.130Z,15.06
2022-09-16T00:46:03.109Z,15.13
2022-09-16T00:48:32.402Z,15.13
2022-09-16T00:51:05.295Z,15.00
2022-09-16T00:53:52.130Z,15.00
2022-09-16T00:56:23.805Z,15.00
2022-09-16T00:58:54.969Z,15.19
2022-09-16T01:01:22.872Z,15.13
2022-09-16T01:03:59.229Z,15.25
2022-09-16T01:06:27.574Z,15.31
2022-09-16T01:08:57.744Z,15.19
2022-09-16T01:11:25.760Z,14.94
2022-09-16T01:13:53.634Z,15.13
2022-09-16T01:16:34.029Z,15.13
2022-09-16T01:19:21.673Z,15.19
2022-09-16T01:22:03.643Z,15.19
2022-09-16T01:24:54.526Z,15.19
2022-09-16T01:27:39.589Z,15.00
2022-09-16T01:30:41.707Z,15.13
2022-09-16T01:33:35.829Z,15.00
2022-09-16T01:36:28.593Z,15.06
2022-09-16T01:39:41.743Z,15.06
2022-09-16T01:42:21.051Z,15.13
2022-09-16T01:44:57.181Z,15.06
2022-09-16T01:48:17.805Z,14.94
2022-09-16T01:51:09.246Z,14.69
2022-09-16T02:11:33.100Z,14.81
2022-09-16T02:14:18.706Z,14.38
2022-09-16T02:17:20.937Z,14.75
2022-09-16T02:20:18.145Z,14.81
2022-09-16T02:22:52.447Z,14.38
2022-09-16T02:25:20.401Z,14.69
2022-09-16T02:27:50.060Z,14.69
2022-09-16T02:30:21.549Z,14.75
2022-09-16T02:33:10.412Z,14.69
2022-09-16T02:35:39.852Z,14.81
2022-09-16T02:38:23.228Z,14.81
2022-09-16T02:40:57.702Z,14.63
2022-09-16T02:43:26.605Z,14.75
2022-09-16T02:46:21.882Z,14.75
2022-09-16T02:49:15.875Z,14.69
2022-09-16T02:52:20.987Z,14.63
2022-09-16T02:55:06.851Z,14.63
2022-09-16T02:57:34.152Z,14.56
2022-09-16T03:00:01.605Z,14.63
2022-09-16T03:02:29.127Z,14.56
2022-09-16T03:04:57.252Z,14.69
2022-09-16T03:07:24.514Z,14.69
2022-09-16T03:09:52.366Z,14.69
2022-09-16T03:12:54.032Z,14.56
2022-09-16T03:15:43.213Z,14.50
2022-09-16T03:18:22.953Z,14.31
2022-09-16T03:21:21.975Z,14.38
2022-09-16T03:24:19.006Z,14.50
2022-09-16T03:27:12.083Z,14.44
2022-09-16T03:29:50.680Z,14.50
2022-09-16T03:32:43.711Z,14.44
2022-09-16T03:35:27.827Z,14.44
2022-09-16T03:38:00.780Z,14.56
2022-09-16T03:40:30.774Z,14.44
2022-09-16T03:42:58.959Z,14.50
2022-09-16T03:45:26.662Z,14.44
2022-09-16T03:47:54.342Z,14.44
2022-09-16T03:50:23.409Z,14.44
2022-09-16T03:52:50.607Z,14.25
2022-09-16T03:55:18.093Z,14.31
2022-09-16T03:57:45.294Z,14.25
2022-09-16T04:00:13.207Z,14.31
2022-09-16T04:02:40.476Z,14.19
2022-09-16T04:05:09.036Z,14.25
2022-09-16T04:07:37.005Z,14.19
2022-09-16T04:10:06.106Z,14.00
2022-09-16T04:12:33.938Z,14.13
2022-09-16T04:15:01.285Z,14.13
2022-09-16T04:17:32.266Z,14.00
2022-09-16T04:19:59.843Z,14.06
2022-09-16T04:22:32.679Z,13.94
2022-09-16T04:25:00.090Z,13.88
2022-09-16T04:27:27.539Z,13.75
2022-09-16T04:29:54.788Z,13.63
2022-09-16T04:32:22.098Z,13.69
2022-09-16T04:34:49.415Z,13.69
2022-09-16T04:37:16.803Z,13.75
2022-09-16T04:39:44.021Z,13.69
2022-09-16T04:42:12.706Z,13.44
2022-09-16T04:44:40.584Z,13.44
2022-09-16T04:47:08.022Z,13.31
2022-09-16T04:49:35.337Z,13.31
2022-09-16T04:52:02.954Z,13.44
2022-09-16T04:54:30.387Z,13.38
2022-09-16T04:56:57.819Z,13.25
2022-09-16T04:59:25.086Z,13.13
2022-09-16T05:01:52.437Z,12.81
2022-09-16T05:04:19.820Z,13.31
2022-09-16T05:06:47.056Z,13.44
2022-09-16T05:09:14.328Z,13.56
2022-09-16T05:11:42.355Z,13.25
2022-09-16T05:14:16.178Z,13.50
2022-09-16T05:16:44.268Z,13.06
2022-09-16T05:19:13.941Z,13.19
2022-09-16T05:21:42.119Z,13.63
2022-09-16T05:24:12.427Z,13.56
2022-09-16T05:26:44.735Z,13.38
2022-09-16T05:29:17.557Z,13.38
2022-09-16T05:31:49.391Z,13.25
2022-09-16T05:34:23.278Z,13.50
2022-09-16T05:36:54.053Z,13.56
2022-09-16T05:39:24.071Z,13.56
2022-09-16T05:41:56.949Z,13.50
2022-09-16T05:44:24.925Z,13.56
2022-09-16T05:46:52.934Z,13.63
2022-09-16T05:49:23.877Z,13.63
2022-09-16T05:51:51.586Z,13.88
2022-09-16T05:54:19.937Z,13.81
2022-09-16T05:56:48.359Z,14.00
2022-09-16T05:59:17.242Z,14.19
2022-09-16T06:01:45.498Z,14.19
2022-09-16T06:04:16.746Z,14.19
2022-09-16T06:06:46.902Z,14.25
2022-09-16T06:09:23.819Z,14.38
2022-09-16T06:11:57.995Z,14.50
2022-09-16T06:14:28.302Z,14.69
2022-09-16T06:16:55.717Z,14.81
2022-09-16T06:19:23.132Z,14.69
2022-09-16T06:21:50.450Z,15.00
2022-09-16T06:24:20.317Z,15.06
2022-09-16T06:26:49.341Z,15.13
2022-09-16T06:29:17.650Z,15.06
2022-09-16T06:31:44.990Z,15.38
2022-09-16T06:34:18.547Z,15.31
2022-09-16T06:36:46.539Z,15.50
2022-09-16T06:39:16.226Z,15.50
2022-09-16T06:41:44.243Z,15.63
2022-09-16T06:44:11.641Z,15.63
2022-09-16T06:46:39.150Z,15.81
2022-09-16T06:49:06.835Z,15.88
2022-09-16T06:51:35.251Z,16.06
2022-09-16T06:54:08.482Z,16.19
2022-09-16T06:56:37.715Z,16.19
2022-09-16T06:59:05.616Z,16.06
2022-09-16T07:01:33.444Z,16.50
2022-09-16T07:04:05.754Z,16.75
2022-09-16T07:09:22.365Z,16.75
2022-09-16T07:11:49.647Z,17.00
2022-09-16T07:14:16.875Z,16.88
2022-09-16T07:16:44.176Z,16.94
2022-09-16T07:19:11.465Z,17.25
2022-09-16T07:21:38.749Z,17.19
2022-09-16T07:24:06.085Z,17.06
2022-09-16T07:26:37.737Z,16.94
2022-09-16T07:29:06.907Z,17.19
2022-09-16T07:31:37.332Z,17.44
2022-09-16T07:34:07.774Z,17.38
2022-09-16T07:36:45.093Z,17.38
2022-09-16T07:39:15.670Z,17.06
2022-09-16T07:41:45.355Z,17.19
2022-09-16T07:44:15.930Z,17.25
2022-09-16T07:46:43.400Z,17.06
2022-09-16T07:49:19.265Z,17.63
2022-09-16T07:51:46.539Z,17.88
2022-09-16T07:54:20.239Z,17.94
2022-09-16T07:56:48.039Z,17.75
2022-09-16T07:59:19.303Z,17.94
2022-09-16T08:01:49.172Z,17.69
2022-09-16T08:04:18.203Z,18.06
2022-09-16T08:06:45.476Z,18.13
2022-09-16T08:09:37.625Z,18.13
2022-09-16T08:12:02.865Z,18.06
2022-09-16T08:14:30.212Z,18.13
2022-09-16T08:16:57.950Z,18.13
2022-09-16T08:19:25.257Z,18.31
2022-09-16T08:21:52.525Z,17.81
2022-09-16T08:24:19.960Z,17.50
2022-09-16T08:26:47.264Z,17.50
2022-09-16T08:29:14.727Z,17.50
2022-09-16T08:31:42.182Z,17.19
2022-09-16T08:34:09.531Z,17.19
2022-09-16T08:36:36.794Z,17.13
2022-09-16T08:39:04.305Z,17.31
2022-09-16T08:42:02.426Z,17.13
2022-09-16T08:44:50.656Z,17.19
2022-09-16T08:47:42.666Z,17.19
2022-09-16T08:50:36.891Z,17.06
2022-09-16T08:53:17.873Z,17.13
2022-09-16T08:55:51.885Z,16.94
2022-09-16T08:58:40.402Z,17.00
2022-09-16T09:01:33.764Z,17.00
2022-09-16T09:04:02.621Z,17.13
2022-09-16T09:06:50.821Z,17.50
2022-09-16T09:10:07.143Z,17.63
2022-09-16T09:12:51.561Z,17.69
2022-09-16T09:15:44.944Z,17.81
2022-09-16T09:18:30.101Z,17.69
2022-09-16T09:21:10.304Z,17.56
2022-09-16T09:24:08.486Z,17.63
2022-09-16T09:26:50.509Z,17.44
2022-09-16T09:29:26.645Z,17.69
2022-09-16T09:32:24.555Z,17.75
2022-09-16T09:35:00.736Z,17.75
2022-09-16T09:37:49.392Z,17.81
2022-09-16T09:40:32.910Z,17.56
2022-09-16T09:43:27.351Z,17.50
2022-09-16T09:46:08.605Z,17.38
2022-09-16T09:48:43.343Z,17.25
2022-09-16T09:51:43.573Z,17.31
2022-09-16T09:54:27.504Z,17.19
2022-09-16T09:57:24.838Z,17.56
2022-09-16T10:00:12.583Z,17.50
2022-09-16T10:02:49.541Z,17.44
2022-09-16T10:05:27.233Z,17.63
2022-09-16T10:08:00.505Z,17.56
2022-09-16T10:10:33.695Z,17.44
2022-09-16T10:13:13.102Z,17.63
2022-09-16T10:15:41.012Z,17.56
2022-09-16T10:18:30.148Z,17.50
2022-09-16T10:21:07.929Z,17.94
2022-09-16T10:23:36.627Z,18.00
2022-09-16T10:26:28.354Z,18.00
2022-09-16T10:29:19.632Z,17.75
2022-09-16T10:31:47.438Z,18.00
2022-09-16T10:34:34.620Z,17.56
2022-09-16T10:37:17.360Z,17.81
2022-09-16T10:39:53.654Z,17.88
2022-09-16T10:42:29.571Z,17.81
2022-09-16T10:45:30.148Z,17.56
2022-09-16T10:48:07.282Z,17.31
2022-09-16T10:50:34.925Z,17.63
2022-09-16T10:53:02.249Z,17.75
2022-09-16T10:55:38.042Z,17.81
2022-09-16T10:58:17.941Z,17.63
2022-09-16T11:01:02.915Z,17.50
2022-09-16T11:03:55.288Z,17.63
2022-09-16T11:06:51.183Z,17.50
2022-09-16T11:10:04.566Z,17.69
2022-09-16T11:12:52.774Z,17.38
2022-09-16T11:15:43.319Z,17.56
2022-09-16T11:18:31.109Z,17.69
2022-09-16T11:21:15.547Z,18.00
2022-09-16T11:24:09.457Z,18.31
2022-09-16T11:27:21.652Z,18.31
2022-09-16T11:30:00.330Z,18.06
2022-09-16T11:33:01.380Z,17.81
2022-09-16T11:35:57.338Z,17.69
2022-09-16T11:38:55.306Z,17.63
2022-09-16T11:42:09.274Z,17.88
2022-09-16T11:44:58.662Z,17.81
2022-09-16T11:48:06.083Z,17.63
2022-09-16T11:50:48.451Z,17.63
2022-09-16T11:53:43.960Z,17.63
2022-09-16T11:56:22.082Z,17.69
2022-09-16T11:59:28.591Z,17.50
2022-09-16T12:02:36.628Z,17.56
2022-09-16T12:05:17.580Z,17.69
2022-09-16T12:08:25.524Z,17.56
2022-09-16T12:10:59.962Z,17.50
2022-09-16T12:13:39.820Z,17.81
2022-09-16T12:16:18.996Z,17.63
2022-09-16T12:18:57.845Z,17.75
2022-09-16T12:21:36.155Z,17.50
2022-09-16T12:24:25.066Z,17.31
2022-09-16T12:27:12.737Z,17.56
2022-09-16T12:30:03.562Z,17.75
2022-09-16T12:33:02.150Z,17.75
2022-09-16T12:35:58.442Z,17.75
2022-09-16T12:38:25.988Z,17.94
2022-09-16T12:41:05.244Z,17.81
2022-09-16T12:43:45.774Z,18.00
2022-09-16T12:46:50.027Z,18.00
2022-09-16T12:49:36.579Z,18.00
2022-09-16T12:52:15.846Z,18.06
2022-09-16T12:55:23.309Z,17.69
2022-09-16T12:58:16.669Z,17.63
2022-09-16T13:01:21.091Z,17.81
2022-09-16T13:04:11.314Z,18.00
2022-09-16T13:06:49.287Z,18.06
2022-09-16T13:09:25.834Z,18.00
2022-09-16T13:15:08.219Z,17.44
2022-09-16T13:17:39.118Z,17.63
2022-09-16T13:20:33.853Z,17.63
2022-09-16T13:23:24.720Z,17.69
2022-09-16T13:26:08.056Z,17.75
2022-09-16T13:28:39.100Z,17.63
2022-09-16T13:31:15.364Z,17.81
2022-09-16T13:34:15.862Z,17.81
2022-09-16T13:36:43.651Z,17.94
2022-09-16T13:39:27.941Z,17.69
2022-09-16T13:41:55.502Z,17.94
2022-09-16T13:44:38.571Z,17.81
2022-09-16T13:47:14.649Z,17.88
2022-09-16T13:49:54.317Z,17.56
2022-09-16T13:52:34.679Z,17.69
2022-09-16T13:55:10.562Z,17.81
2022-09-16T13:57:56.625Z,17.69
2022-09-16T14:00:53.138Z,17.81
2022-09-16T14:03:32.619Z,17.81
2022-09-16T14:06:31.266Z,17.56
2022-09-16T14:09:09.395Z,17.56
2022-09-16T14:12:03.967Z,17.56
2022-09-16T14:14:46.763Z,17.31
2022-09-16T14:17:28.608Z,17.31
2022-09-16T14:20:01.078Z,17.44
2022-09-16T14:22:29.004Z,17.44
2022-09-16T14:25:06.098Z,17.38
2022-09-16T14:27:39.764Z,17.25
2022-09-16T14:30:17.288Z,17.25
2022-09-16T14:32:47.034Z,17.31
2022-09-16T14:35:27.068Z,17.44
2022-09-16T14:38:02.474Z,17.38
2022-09-16T14:40:30.175Z,17.31
2022-09-16T14:43:08.049Z,17.25
2022-09-16T14:45:37.970Z,17.38
2022-09-16T14:48:12.413Z,17.44
2022-09-16T14:50:46.711Z,17.25
2022-09-16T14:53:41.660Z,17.44
2022-09-16T14:56:20.041Z,17.44
2022-09-16T14:58:48.168Z,17.31
2022-09-16T15:01:37.953Z,17.50
2022-09-16T15:04:18.584Z,17.38
2022-09-16T15:06:53.770Z,17.44
2022-09-16T15:09:58.332Z,17.38
2022-09-16T15:12:35.812Z,17.38
2022-09-16T15:15:16.036Z,17.19
2022-09-16T15:17:43.417Z,17.25
2022-09-16T15:20:26.650Z,17.25
2022-09-16T15:22:55.068Z,17.19
2022-09-16T15:25:34.359Z,17.13
2022-09-16T15:28:19.414Z,17.25
2022-09-16T15:30:50.285Z,17.13
2022-09-16T15:33:34.509Z,17.00
2022-09-16T15:36:03.021Z,16.81
2022-09-16T15:38:31.407Z,16.88
2022-09-16T15:41:03.311Z,17.13
2022-09-16T15:43:40.187Z,16.88
2022-09-16T15:46:22.115Z,16.75
2022-09-16T15:48:57.107Z,16.69
2022-09-16T15:51:35.110Z,16.75
2022-09-16T15:54:54.269Z,16.81
2022-09-16T15:57:35.196Z,16.88
2022-09-16T16:00:16.212Z,16.81
2022-09-16T16:02:57.206Z,16.69
2022-09-16T16:05:31.209Z,16.81
2022-09-16T16:08:07.650Z,16.75
2022-09-16T16:10:38.433Z,16.94
2022-09-16T16:13:05.633Z,16.63
2022-09-16T16:15:39.009Z,16.50
2022-09-16T16:18:10.760Z,16.63
2022-09-16T16:20:39.059Z,16.56
2022-09-16T16:23:07.226Z,16.56
2022-09-16T16:25:34.491Z,16.63
2022-09-16T16:28:02.016Z,16.50
2022-09-16T16:30:29.272Z,16.44
2022-09-16T16:32:56.467Z,16.44
2022-09-16T16:35:23.658Z,16.38
2022-09-16T16:37:50.837Z,16.25
2022-09-16T16:40:18.133Z,16.56
2022-09-16T16:42:45.815Z,16.38
2022-09-16T16:45:14.581Z,16.44
2022-09-16T16:47:42.993Z,16.31
2022-09-16T16:50:11.014Z,16.38
2022-09-16T16:52:38.835Z,16.31
2022-09-16T16:55:07.072Z,16.38
2022-09-16T16:57:34.376Z,16.38
2022-09-16T17:00:01.780Z,16.25
2022-09-16T17:02:29.052Z,16.44
2022-09-16T17:04:56.301Z,16.13
2022-09-16T17:07:26.561Z,16.06
2022-09-16T17:09:57.531Z,16.25
2022-09-16T17:12:25.681Z,16.06
2022-09-16T17:14:52.923Z,16.06
2022-09-16T17:17:20.253Z,16.19
2022-09-16T17:19:47.454Z,16.06
2022-09-16T17:22:14.772Z,16.13
2022-09-16T17:24:42.010Z,16.19
2022-09-16T17:27:09.249Z,16.13
2022-09-16T17:29:36.484Z,16.00
2022-09-16T17:32:03.869Z,15.94
2022-09-16T17:34:31.994Z,15.94
2022-09-16T17:36:59.403Z,15.94
2022-09-16T17:39:27.028Z,15.88
2022-09-16T17:41:56.937Z,16.00
2022-09-16T17:44:24.927Z,15.88
2022-09-16T17:46:52.172Z,16.00
2022-09-16T17:49:24.750Z,16.06
2022-09-16T17:51:53.864Z,15.88
2022-09-16T17:54:21.948Z,15.81
2022-09-16T17:56:49.276Z,15.69
2022-09-16T17:59:19.188Z,15.69
2022-09-16T18:01:47.183Z,15.63
2022-09-16T18:04:14.450Z,15.88
2022-09-16T18:06:46.984Z,16.00
2022-09-16T18:09:16.610Z,15.81
2022-09-16T18:11:44.988Z,15.94
2022-09-16T18:14:14.418Z,16.00
2022-09-16T18:16:42.220Z,15.88
2022-09-16T18:19:09.865Z,15.94
2022-09-16T18:21:38.263Z,15.88
2022-09-16T18:24:11.073Z,15.81
2022-09-16T18:26:39.024Z,15.94
2022-09-16T18:29:10.072Z,15.94
2022-09-16T18:31:41.024Z,15.88
2022-09-16T18:34:09.013Z,16.06
2022-09-16T18:36:37.782Z,15.81
2022-09-16T18:39:07.797Z,15.81
2022-09-16T18:41:40.606Z,15.88
2022-09-16T18:44:17.207Z,15.88
2022-09-16T18:46:44.450Z,15.81
2022-09-16T18:49:14.873Z,15.94
2022-09-16T18:51:51.670Z,15.88
2022-09-16T18:54:29.266Z,15.69
2022-09-16T18:57:01.933Z,15.56
2022-09-16T18:59:32.323Z,15.75
2022-09-16T19:02:02.816Z,15.81
2022-09-16T19:04:36.968Z,15.81
2022-09-16T19:07:08.259Z,15.88
2022-09-16T19:09:39.810Z,15.75
2022-09-16T19:12:12.740Z,15.56
2022-09-16T19:14:41.042Z,15.50
2022-09-16T19:17:08.516Z,15.75
2022-09-16T19:19:35.992Z,15.44
2022-09-16T19:22:06.009Z,15.50
2022-09-16T19:24:34.181Z,15.63
2022-09-16T19:27:01.414Z,15.25
2022-09-16T19:29:28.736Z,15.50
2022-09-16T19:31:56.299Z,15.50
2022-09-16T19:34:23.647Z,15.25
2022-09-16T19:36:51.662Z,15.31
2022-09-16T19:39:21.190Z,15.13
2022-09-16T19:41:48.728Z,15.31
2022-09-16T19:44:18.112Z,15.31
2022-09-16T19:46:49.390Z,15.31
2022-09-16T19:49:23.152Z,15.31
2022-09-16T19:51:52.974Z,15.25
2022-09-16T19:54:24.028Z,15.31
2022-09-16T19:56:51.745Z,15.31
2022-09-16T19:59:20.356Z,15.25
2022-09-16T20:01:48.456Z,15.25
2022-09-16T20:04:19.818Z,15.31
2022-09-16T20:06:47.987Z,14.88
2022-09-16T20:09:15.208Z,14.88
2022-09-16T20:11:45.748Z,14.88
2022-09-16T20:14:20.522Z,14.88
2022-09-16T20:16:49.921Z,14.81
2022-09-16T20:19:19.999Z,15.13
2022-09-16T20:21:47.395Z,15.06
2022-09-16T20:24:21.218Z,15.13
2022-09-16T20:26:51.005Z,15.06
2022-09-16T20:29:20.036Z,15.25
2022-09-16T20:31:50.172Z,15.31
2022-09-16T20:34:17.774Z,15.25
2022-09-16T20:36:46.207Z,15.06
2022-09-16T20:39:15.127Z,15.19
2022-09-16T20:41:45.683Z,14.81
2022-09-16T20:44:16.689Z,15.13
2022-09-16T20:46:44.506Z,15.00
2022-09-16T20:49:16.145Z,14.88
2022-09-16T20:51:43.862Z,14.88
2022-09-16T20:54:14.616Z,15.06
2022-09-16T20:56:45.067Z,15.00
2022-09-16T20:59:15.246Z,14.88
2022-09-16T21:01:43.275Z,14.88
2022-09-16T21:04:17.981Z,14.75
2022-09-16T21:06:46.401Z,14.88
2022-09-16T21:09:16.268Z,14.94
2022-09-16T21:11:45.047Z,14.94
2022-09-16T21:14:17.650Z,14.88
2022-09-16T21:16:47.209Z,14.56
2022-09-16T21:19:15.294Z,14.75
2022-09-16T21:21:47.607Z,14.69
2022-09-16T21:24:16.446Z,14.75
2022-09-16T21:26:45.398Z,14.69
2022-09-16T21:29:20.288Z,14.63
2022-09-16T21:31:48.941Z,14.75
2022-09-16T21:34:21.379Z,14.63
2022-09-16T21:36:50.049Z,14.69
2022-09-16T21:39:19.874Z,14.88
2022-09-16T21:41:48.789Z,14.75
2022-09-16T21:44:16.714Z,14.81
2022-09-16T21:46:46.440Z,14.63
2022-09-16T21:49:24.385Z,14.56
2022-09-16T21:51:58.070Z,14.63
2022-09-16T21:54:26.766Z,14.50
2022-09-16T21:56:54.335Z,14.38
2022-09-16T21:59:21.876Z,14.44
2022-09-16T22:01:50.901Z,14.56
2022-09-16T22:04:22.780Z,14.50
2022-09-16T22:06:52.827Z,14.38
2022-09-16T22:09:20.327Z,14.50
2022-09-16T22:11:47.905Z,14.31
2022-09-16T22:14:16.273Z,14.44
2022-09-16T22:16:44.245Z,14.31
2022-09-16T22:19:17.098Z,14.38
2022-09-16T22:21:47.407Z,14.56
2022-09-16T22:24:20.791Z,14.56
2022-09-16T22:26:50.762Z,14.56
2022-09-16T22:29:18.223Z,14.44
2022-09-16T22:31:45.526Z,14.44
2022-09-16T22:34:12.991Z,14.38
2022-09-16T22:36:40.390Z,14.38
2022-09-16T22:39:14.526Z,14.25
2022-09-16T22:41:42.218Z,14.00
2022-09-16T22:44:09.588Z,14.00
2022-09-16T22:46:46.983Z,14.00
2022-09-16T22:49:21.804Z,14.00
2022-09-16T22:51:49.173Z,13.63
2022-09-16T22:54:16.756Z,13.88
2022-09-16T22:56:45.065Z,13.88
2022-09-16T22:59:19.676Z,13.75
2022-09-16T23:01:47.919Z,13.88
2022-09-16T23:04:15.599Z,13.75
2022-09-16T23:06:43.334Z,13.75
2022-09-16T23:09:13.162Z,13.75
2022-09-16T23:11:40.549Z,13.56
2022-09-16T23:14:10.842Z,13.38
2022-09-16T23:16:38.812Z,13.31
2022-09-16T23:19:10.473Z,13.50
2022-09-16T23:21:39.295Z,13.50
2022-09-16T23:24:09.252Z,13.75
2022-09-16T23:26:38.630Z,13.75
2022-09-16T23:29:09.017Z,13.63
2022-09-16T23:31:40.483Z,13.69
2022-09-16T23:34:17.706Z,13.56
2022-09-16T23:36:45.848Z,13.56
2022-09-16T23:39:15.479Z,13.56
2022-09-16T23:41:43.658Z,13.63
2022-09-16T23:44:14.019Z,13.50
2022-09-16T23:46:41.710Z,13.44
2022-09-16T23:49:10.490Z,13.44
2022-09-16T23:51:38.033Z,13.38
2022-09-16T23:54:05.346Z,13.63
2022-09-16T23:56:32.843Z,13.63
2022-09-16T23:59:01.236Z,13.63
